Terminal Aerodrome Forecast
Issued by NWS Sioux Falls, SD

Home | Current Version | Previous Version | Text Only | Print | Product List | Glossary On
Versions: 1 2 3 4 5 6 7 8 9 10 11 12 13 14 15 16 17 18 19 20 21 22 23 24 25 26 27 28 29 30 31
177
FTUS43 KFSD 231731
TAFSUX
TAF
KSUX 231731Z 2318/2418 18012KT P6SM SCT025 BKN045
      TEMPO 2318/2320 BKN025
     FM232000 22010KT P6SM VCTS OVC040CB
     FM232300 17008KT P6SM BKN050 BKN080
     FM240900 16004KT 4SM BR SCT003 SCT120
     FM241400 15005KT P6SM BKN250=

USA.gov is the U.S. government's official web portal to all federal, state and local government web resources and services.